Time;durP1;ratioP1;P1;durP2;ratioP2;P2;SDS_P1;SDS_P2;PMS_P1;PMS_P2;Temp;Humidity;BMP_temperature;BMP_pressure;BME280_temperature;BME280_humidity;BME280_pressure;Samples;Min_cycle;Max_cycle;Signal;HPM_P1;HPM_P2
2021/11/10 00:00:21;;;;;;;38.17;24.42;;;;;;;7.91;61.88;99505.66;5134006;27;20524;-52
2021/11/10 00:02:47;;;;;;;36.58;24.40;;;;;;;7.95;61.97;99511.38;5133980;27;20461;-51
2021/11/10 00:05:15;;;;;;;36.45;23.85;;;;;;;7.89;61.36;99504.19;5115469;27;20030;-51
2021/11/10 00:07:41;;;;;;;48.03;28.00;;;;;;;7.63;61.86;99496.50;5133882;27;20019;-51
2021/11/10 00:10:08;;;;;;;42.33;27.40;;;;;;;7.82;62.47;99495.38;5111665;28;20035;-51
2021/11/10 00:12:34;;;;;;;31.85;21.38;;;;;;;7.88;61.61;99499.94;5113251;28;20035;-51
2021/11/10 00:15:01;;;;;;;39.08;22.30;;;;;;;7.68;62.39;99487.19;5111905;28;20065;-51
2021/11/10 00:17:28;;;;;;;35.42;22.35;;;;;;;7.58;62.21;99476.88;5113178;28;20034;-51
2021/11/10 00:19:54;;;;;;;44.45;27.20;;;;;;;7.56;62.97;99478.03;5113073;28;20102;-51
2021/11/10 00:22:20;;;;;;;36.75;26.63;;;;;;;7.84;63.72;99462.03;5113051;27;20020;-51
2021/11/10 00:24:46;;;;;;;37.47;24.77;;;;;;;8.22;62.23;99464.97;5113102;28;20043;-51
2021/11/10 00:27:12;;;;;;;43.58;25.45;;;;;;;8.12;61.57;99465.13;5112860;28;20051;-51
2021/11/10 00:29:38;;;;;;;41.40;25.83;;;;;;;8.05;62.12;99457.16;5112957;28;20055;-51
2021/11/10 00:32:04;;;;;;;36.00;23.55;;;;;;;8.07;62.16;99457.78;5112868;28;20032;-51
2021/11/10 00:34:30;;;;;;;35.95;24.35;;;;;;;8.08;61.74;99448.97;5112875;28;20449;-51
2021/11/10 00:36:56;;;;;;;45.80;25.88;;;;;;;7.87;62.38;99448.63;5112834;28;20108;-51
2021/11/10 00:39:22;;;;;;;35.78;23.52;;;;;;;8.02;63.30;99452.22;5112832;28;20038;-51
2021/11/10 00:41:48;;;;;;;36.00;24.58;;;;;;;8.14;62.05;99456.13;5112710;28;20489;-51
2021/11/10 00:44:13;;;;;;;41.40;24.58;;;;;;;8.30;62.55;99462.34;5112699;28;20045;-51
2021/11/10 00:46:39;;;;;;;37.47;23.52;;;;;;;8.46;62.19;99467.56;5111270;28;20552;-51
2021/11/10 00:49:05;;;;;;;343.67;208.68;;;;;;;8.42;61.34;99471.50;5112595;28;20024;-51
2021/11/10 00:51:31;;;;;;;54.03;36.17;;;;;;;8.29;61.60;99476.38;5110870;28;20481;-51
2021/11/10 00:53:57;;;;;;;48.72;30.73;;;;;;;8.13;61.41;99475.44;5112533;28;20042;-51
2021/11/10 00:56:23;;;;;;;43.88;28.00;;;;;;;7.89;61.83;99468.44;5112496;28;20039;-51
2021/11/10 00:58:49;;;;;;;62.00;45.30;;;;;;;7.70;62.62;99469.53;5111155;28;20027;-51
2021/11/10 01:01:15;;;;;;;42.22;27.95;;;;;;;7.76;62.83;99476.72;5112403;28;20034;-51
2021/11/10 01:03:41;;;;;;;62.03;41.25;;;;;;;7.69;62.65;99470.53;5112437;28;20042;-51
2021/11/10 01:06:07;;;;;;;42.40;25.55;;;;;;;7.69;63.09;99481.00;5110924;28;20481;-51
2021/11/10 01:08:32;;;;;;;42.67;27.20;;;;;;;7.64;63.04;99474.59;5112373;28;20023;-51
2021/11/10 01:10:58;;;;;;;40.30;27.08;;;;;;;7.82;62.88;99474.47;5112165;28;20118;-51
2021/11/10 01:13:25;;;;;;;41.38;26.45;;;;;;;7.88;62.77;99473.81;5112324;28;20027;-51
2021/11/10 01:15:50;;;;;;;40.83;26.73;;;;;;;7.93;62.68;99464.50;5112265;28;20024;-51
2021/11/10 01:18:16;;;;;;;38.90;24.67;;;;;;;7.95;63.17;99464.34;5110897;28;20026;-51
2021/11/10 01:20:43;;;;;;;42.42;28.02;;;;;;;7.96;62.28;99465.97;5110883;28;20114;-51
2021/11/10 01:23:10;;;;;;;45.75;26.98;;;;;;;7.79;62.68;99465.16;5112162;28;20557;-51
2021/11/10 01:25:38;;;;;;;43.58;27.05;;;;;;;7.56;62.99;99459.75;5112168;28;20122;-51
2021/11/10 01:28:06;;;;;;;46.58;25.67;;;;;;;7.57;63.83;99449.13;5112077;28;20031;-51
2021/11/10 01:30:32;;;;;;;48.80;28.17;;;;;;;7.59;63.45;99433.31;5112361;28;20099;-51
2021/11/10 01:32:58;;;;;;;44.72;27.65;;;;;;;7.56;63.05;99418.75;5110828;28;20047;-51
2021/11/10 01:35:24;;;;;;;49.08;27.58;;;;;;;7.54;63.00;99414.69;5110786;28;20114;-51
2021/11/10 01:37:49;;;;;;;41.67;25.45;;;;;;;7.53;63.23;99408.66;5112102;28;20130;-51
2021/11/10 01:40:17;;;;;;;40.75;26.63;;;;;;;7.54;63.44;99399.81;5110717;28;20024;-51
2021/11/10 01:42:46;;;;;;;45.22;25.25;;;;;;;7.58;63.45;99422.03;5112071;28;20051;-51
2021/11/10 01:45:15;;;;;;;36.78;24.38;;;;;;;7.54;63.59;99425.94;5111992;28;20019;-51
2021/11/10 01:47:41;;;;;;;41.92;24.77;;;;;;;7.36;63.05;99428.72;5111947;28;20127;-51
2021/11/10 01:50:11;;;;;;;47.50;27.65;;;;;;;7.20;64.04;99431.28;5111871;28;20053;-50
2021/11/10 01:52:37;;;;;;;47.72;27.52;;;;;;;7.22;63.82;99442.38;5111963;28;20042;-51
2021/11/10 01:55:05;;;;;;;47.80;26.23;;;;;;;7.27;63.71;99457.59;5111928;28;20099;-51
2021/11/10 01:57:31;;;;;;;41.95;27.02;;;;;;;7.30;64.61;99465.88;5111898;28;20114;-51
2021/11/10 02:00:11;;;;;;;47.50;28.17;;;;;;;7.29;64.39;99460.84;5111921;28;20146;-50
2021/11/10 02:02:40;;;;;;;43.50;27.02;;;;;;;7.31;64.77;99464.13;5110905;28;20024;-51
2021/11/10 02:05:11;;;;;;;41.90;25.70;;;;;;;7.21;64.27;99464.25;5115144;28;20483;-51
2021/11/10 02:07:38;;;;;;;50.47;29.70;;;;;;;7.05;64.56;99453.75;5115724;28;20429;-51
2021/11/10 02:10:06;;;;;;;50.58;29.10;;;;;;;6.84;65.40;99439.34;5128244;27;20098;-51
2021/11/10 02:12:33;;;;;;;46.30;28.77;;;;;;;6.86;65.24;99436.56;5136187;27;20480;-51
2021/11/10 02:15:00;;;;;;;45.92;27.75;;;;;;;6.86;65.51;99433.94;5136082;27;20515;-51
2021/11/10 02:17:26;;;;;;;49.67;29.58;;;;;;;6.94;65.14;99428.75;5117547;27;20373;-51
2021/11/10 02:19:52;;;;;;;49.35;26.83;;;;;;;7.00;65.03;99425.50;5136101;27;20047;-51
2021/11/10 02:22:19;;;;;;;48.38;28.77;;;;;;;6.98;65.43;99428.31;5135867;27;20439;-50
2021/11/10 02:24:45;;;;;;;64.65;30.30;;;;;;;7.06;65.69;99421.47;5135963;27;20023;-51
2021/11/10 02:27:26;;;;;;;49.85;26.70;;;;;;;7.09;65.17;99408.09;5117390;27;20523;-51
2021/11/10 02:29:52;;;;;;;44.35;25.52;;;;;;;7.18;65.18;99417.56;5135914;27;20027;-51
2021/11/10 02:32:18;;;;;;;48.47;26.90;;;;;;;7.39;64.99;99417.13;5135762;27;20148;-51
2021/11/10 02:34:46;;;;;;;48.25;28.10;;;;;;;7.40;64.19;99398.69;5117246;27;20035;-51
2021/11/10 02:37:15;;;;;;;46.25;27.40;;;;;;;7.35;65.17;99392.31;5117263;27;20369;-51
2021/11/10 02:39:41;;;;;;;45.05;26.50;;;;;;;7.47;64.66;99398.03;5135691;27;20084;-51
2021/11/10 02:42:07;;;;;;;46.92;25.00;;;;;;;7.77;64.86;99405.22;5117124;27;20016;-51
2021/11/10 02:44:34;;;;;;;42.60;23.23;;;;;;;8.30;63.34;99407.41;5117093;27;20434;-51
2021/11/10 02:47:00;;;;;;;47.10;24.88;;;;;;;8.60;62.73;99400.66;5135509;27;20030;-51
2021/11/10 02:49:26;;;;;;;41.03;25.90;;;;;;;8.74;62.26;99394.69;5117009;27;20050;-51
2021/11/10 02:52:05;;;;;;;42.95;25.80;;;;;;;8.89;61.43;99393.97;5117032;27;20504;-51
2021/11/10 02:54:33;;;;;;;38.75;25.55;;;;;;;8.88;60.52;99387.91;5135492;27;20562;-51
2021/11/10 02:57:01;;;;;;;42.70;27.50;;;;;;;8.57;60.74;99380.88;5135302;27;20027;-51
2021/11/10 02:59:27;;;;;;;43.20;28.70;;;;;;;8.18;60.90;99397.31;5135228;27;20031;-51
2021/11/10 03:01:54;;;;;;;50.20;26.90;;;;;;;7.90;62.66;99396.06;5135194;27;20027;-52
2021/11/10 03:04:27;;;;;;;48.13;27.90;;;;;;;7.96;62.56;99382.31;5116718;27;20504;-51
2021/11/10 03:06:54;;;;;;;42.85;25.73;;;;;;;7.88;62.15;99361.44;5135056;27;20027;-51
2021/11/10 03:09:25;;;;;;;43.42;27.35;;;;;;;7.77;62.85;99370.44;5134830;27;20166;-51
2021/11/10 03:11:59;;;;;;;181.95;147.55;;;;;;;7.60;63.33;99365.19;5135025;27;20020;-51
2021/11/10 03:14:26;;;;;;;54.55;34.55;;;;;;;7.51;62.74;99366.22;5134716;27;20028;-51
2021/11/10 03:16:53;;;;;;;73.15;40.67;;;;;;;7.38;63.25;99374.53;5134912;27;20055;-51
2021/11/10 03:19:19;;;;;;;51.92;30.15;;;;;;;7.36;63.78;99386.09;5134854;27;20012;-51
2021/11/10 03:21:46;;;;;;;63.83;37.67;;;;;;;7.30;64.02;99374.50;5116320;27;20050;-51
2021/11/10 03:24:14;;;;;;;493.10;439.15;;;;;;;7.34;64.31;99359.34;5135033;27;20019;-51
2021/11/10 03:26:40;;;;;;;177.93;138.85;;;;;;;7.39;63.57;99357.06;5134630;27;20057;-51
2021/11/10 03:29:06;;;;;;;57.75;37.15;;;;;;;7.35;64.28;99359.19;5116248;27;20019;-51
2021/11/10 03:31:34;;;;;;;56.13;31.48;;;;;;;7.34;64.37;99356.72;5134628;27;20019;-51
2021/11/10 03:34:02;;;;;;;55.38;28.15;;;;;;;7.32;64.15;99354.28;5134656;27;20016;-51
2021/11/10 03:36:29;;;;;;;42.58;24.95;;;;;;;7.40;64.15;99364.75;5134491;27;20023;-51
2021/11/10 03:38:54;;;;;;;47.70;26.38;;;;;;;7.49;63.88;99354.28;5134459;27;20496;-51
2021/11/10 03:41:21;;;;;;;43.25;25.40;;;;;;;7.48;63.30;99356.06;5134399;27;20027;-51
2021/11/10 03:43:47;;;;;;;43.25;24.27;;;;;;;7.39;63.81;99350.03;5134393;27;20391;-51
2021/11/10 03:46:13;;;;;;;41.30;25.88;;;;;;;7.35;63.98;99329.66;5134268;27;20023;-51
2021/11/10 03:48:40;;;;;;;44.30;25.70;;;;;;;7.34;63.78;99335.84;5134235;27;20106;-51
2021/11/10 03:51:07;;;;;;;43.20;25.58;;;;;;;7.34;64.23;99338.44;5134278;27;20023;-51
2021/11/10 03:53:33;;;;;;;41.50;24.08;;;;;;;7.27;63.93;99351.34;5134199;27;20038;-51
2021/11/10 03:55:59;;;;;;;46.97;25.13;;;;;;;7.26;64.03;99343.66;5134108;27;20396;-51
2021/11/10 03:58:25;;;;;;;48.30;24.73;;;;;;;7.31;64.21;99350.03;5134143;27;20023;-51
2021/11/10 04:00:50;;;;;;;42.30;23.73;;;;;;;7.36;63.77;99337.31;5115818;27;20027;-50
2021/11/10 04:03:17;;;;;;;40.33;24.95;;;;;;;7.39;63.88;99333.56;5115519;27;20407;-51
2021/11/10 04:05:42;;;;;;;48.00;25.08;;;;;;;7.36;63.90;99357.38;5115460;27;20025;-51
2021/11/10 04:08:09;;;;;;;44.30;25.73;;;;;;;7.24;63.67;99351.66;5115367;27;20020;-51
2021/11/10 04:10:37;;;;;;;44.60;24.77;;;;;;;7.12;64.35;99347.72;5133726;27;20160;-51
2021/11/10 04:13:07;;;;;;;47.30;24.38;;;;;;;7.12;65.13;99340.75;5133795;27;20031;-51
2021/11/10 04:15:33;;;;;;;36.53;23.10;;;;;;;7.21;64.74;99346.78;5133743;27;20062;-51
2021/11/10 04:17:59;;;;;;;35.72;21.63;;;;;;;7.26;64.34;99341.88;5115240;27;20024;-51
2021/11/10 04:20:25;;;;;;;124.75;87.82;;;;;;;7.25;64.40;99339.44;5133592;27;20094;-51
2021/11/10 04:22:51;;;;;;;310.48;193.20;;;;;;;7.20;63.89;99335.53;5133600;27;20128;-51
2021/11/10 04:25:17;;;;;;;69.03;38.88;;;;;;;7.26;64.94;99348.88;5133591;27;20054;-51
2021/11/10 04:27:43;;;;;;;46.75;29.88;;;;;;;7.26;64.31;99343.66;5132789;27;20045;-51
2021/11/10 04:30:11;;;;;;;40.40;24.75;;;;;;;7.28;64.48;99332.06;5133429;27;20049;-51
2021/11/10 04:32:38;;;;;;;57.58;25.80;;;;;;;7.23;64.51;99329.16;5133447;27;20024;-51
2021/11/10 04:35:07;;;;;;;45.03;25.17;;;;;;;7.12;64.67;99327.69;5133393;27;20015;-51
2021/11/10 04:37:32;;;;;;;42.17;25.40;;;;;;;7.11;64.82;99325.25;5133378;27;20046;-51
2021/11/10 04:39:59;;;;;;;45.78;23.40;;;;;;;7.10;65.13;99328.81;5133277;27;20098;-51
2021/11/10 04:42:25;;;;;;;38.97;23.48;;;;;;;7.22;64.96;99322.28;5133252;27;20550;-51
2021/11/10 04:44:55;;;;;;;48.15;25.05;;;;;;;7.26;64.78;99334.03;5133242;27;20108;-51
2021/11/10 04:47:21;;;;;;;52.72;26.33;;;;;;;7.31;64.92;99344.81;5133431;27;20076;-50
2021/11/10 04:49:47;;;;;;;54.30;28.92;;;;;;;7.32;64.16;99348.25;5133145;27;20476;-51
2021/11/10 04:52:14;;;;;;;50.90;27.88;;;;;;;7.31;64.76;99344.00;5133039;27;20034;-52
2021/11/10 04:54:40;;;;;;;49.72;28.25;;;;;;;7.31;64.79;99341.41;5133102;27;20016;-51
2021/11/10 04:57:06;;;;;;;60.88;29.27;;;;;;;7.32;65.41;99327.34;5132985;27;20531;-51
2021/11/10 04:59:32;;;;;;;49.92;26.30;;;;;;;7.57;65.28;99325.56;5133046;27;20015;-52
2021/11/10 05:04:36;;;;;;;45.87;26.33;;;;;;;8.30;63.73;99334.19;5133034;27;20030;-51
2021/11/10 05:07:02;;;;;;;47.20;28.20;;;;;;;8.35;63.19;99334.50;5132825;27;20622;-51
2021/11/10 05:09:29;;;;;;;56.60;28.10;;;;;;;8.23;62.38;99328.00;5132593;27;20047;-51
2021/11/10 05:11:55;;;;;;;52.10;27.08;;;;;;;7.87;62.98;99342.34;5132790;27;20038;-51
2021/11/10 05:14:21;;;;;;;58.75;27.48;;;;;;;7.76;63.36;99335.63;5132834;27;20015;-51
2021/11/10 05:16:47;;;;;;;44.78;26.58;;;;;;;7.69;64.45;99332.06;5132811;28;20031;-51
2021/11/10 05:19:13;;;;;;;50.58;24.95;;;;;;;7.74;63.39;99321.13;5114302;28;20054;-51
2021/11/10 05:21:39;;;;;;;46.28;26.30;;;;;;;7.69;63.63;99329.47;5132723;28;20023;-51
2021/11/10 05:24:05;;;;;;;46.40;27.00;;;;;;;7.66;64.50;99335.00;5114494;28;20055;-51
2021/11/10 05:26:31;;;;;;;42.17;24.83;;;;;;;7.72;63.73;99321.28;5132624;28;20019;-51
2021/11/10 05:28:58;;;;;;;44.50;24.80;;;;;;;7.71;63.28;99308.41;5132693;28;20383;-51
2021/11/10 05:31:23;;;;;;;49.30;26.17;;;;;;;7.58;63.60;99301.88;5114504;28;20076;-52
2021/11/10 05:33:50;;;;;;;42.97;25.60;;;;;;;7.43;64.04;99297.50;5132634;28;20016;-51
2021/11/10 05:36:16;;;;;;;45.85;25.85;;;;;;;7.35;64.60;99314.78;5132581;28;20023;-51
2021/11/10 05:38:42;;;;;;;49.00;31.48;;;;;;;7.17;63.97;99317.56;5135480;27;20486;-51
2021/11/10 05:41:08;;;;;;;41.90;25.98;;;;;;;6.94;65.20;99313.94;5136728;27;20051;-51
2021/11/10 05:43:34;;;;;;;47.80;25.17;;;;;;;7.02;65.48;99316.56;5136792;27;20055;-51
2021/11/10 05:46:00;;;;;;;43.22;25.83;;;;;;;7.19;64.66;99320.03;5136603;27;20488;-51
2021/11/10 05:48:25;;;;;;;44.45;24.50;;;;;;;7.26;64.56;99323.59;5136650;27;20026;-51
2021/11/10 05:50:52;;;;;;;41.42;25.23;;;;;;;7.14;64.60;99337.94;5118197;27;20033;-51
2021/11/10 05:53:18;;;;;;;44.60;24.27;;;;;;;7.03;64.87;99333.06;5136548;27;20054;-51
2021/11/10 05:55:44;;;;;;;52.47;30.13;;;;;;;6.95;65.57;99337.28;5136505;27;20050;-51
2021/11/10 05:58:11;;;;;;;41.70;27.35;;;;;;;7.23;65.54;99338.78;5136431;27;20037;-51
2021/11/10 06:00:37;;;;;;;47.65;25.25;;;;;;;7.46;65.84;99331.91;5136467;27;20035;-51
2021/11/10 06:03:03;;;;;;;45.92;25.08;;;;;;;7.69;64.19;99342.53;5136369;27;20056;-51
2021/11/10 06:05:28;;;;;;;43.65;26.25;;;;;;;7.70;64.63;99343.34;5136301;27;20054;-51
2021/11/10 06:07:56;;;;;;;46.10;26.02;;;;;;;7.73;64.12;99343.00;5136235;27;20044;-51
2021/11/10 06:10:22;;;;;;;46.35;25.45;;;;;;;7.68;64.05;99338.25;5121689;27;20075;-52
2021/11/10 06:12:49;;;;;;;48.25;27.70;;;;;;;7.56;63.89;99350.84;5114257;27;20042;-51
2021/11/10 06:15:16;;;;;;;45.65;25.00;;;;;;;7.37;64.51;99345.97;5135778;27;20039;-51
2021/11/10 06:17:43;;;;;;;47.03;29.45;;;;;;;7.28;64.89;99346.94;5136107;27;20016;-51
2021/11/10 06:20:10;;;;;;;65.35;29.95;;;;;;;7.31;65.92;99352.66;5135916;27;20031;-51
2021/11/10 06:22:37;;;;;;;57.33;28.85;;;;;;;7.44;64.22;99362.59;5117520;27;20015;-51
2021/11/10 06:25:05;;;;;;;52.28;27.55;;;;;;;7.37;65.12;99361.63;5135956;27;20027;-51
2021/11/10 06:27:31;;;;;;;59.45;27.60;;;;;;;7.30;65.00;99356.22;5135823;27;20015;-51
2021/11/10 06:29:57;;;;;;;54.08;27.38;;;;;;;7.35;65.54;99355.75;5135858;27;20480;-51
2021/11/10 06:32:23;;;;;;;65.55;29.60;;;;;;;7.48;65.21;99334.38;5135764;27;20022;-51
2021/11/10 06:34:50;;;;;;;52.45;30.27;;;;;;;7.57;64.86;99308.09;5135806;27;20023;-51
2021/11/10 06:37:16;;;;;;;52.28;27.92;;;;;;;7.50;64.73;99308.91;5135954;27;20027;-51
2021/11/10 06:39:42;;;;;;;48.13;28.35;;;;;;;7.52;64.33;99325.22;5117258;27;20480;-51
2021/11/10 06:42:08;;;;;;;51.97;28.50;;;;;;;7.39;64.26;99325.72;5135597;27;20027;-51
2021/11/10 06:44:35;;;;;;;54.10;28.58;;;;;;;7.47;64.69;99338.78;5135581;27;20055;-51
2021/11/10 06:47:03;;;;;;;45.45;26.25;;;;;;;7.55;64.34;99348.41;5135358;27;20148;-51
2021/11/10 06:49:30;;;;;;;50.58;27.70;;;;;;;7.57;65.06;99351.69;5134795;27;20438;-51
2021/11/10 06:51:57;;;;;;;54.10;28.17;;;;;;;7.80;64.68;99364.88;5135449;27;20019;-51
2021/11/10 06:54:24;;;;;;;49.83;28.05;;;;;;;7.84;63.06;99368.78;5135405;27;20392;-51
2021/11/10 06:56:50;;;;;;;63.22;30.73;;;;;;;7.70;64.06;99346.75;5135342;27;20015;-51
2021/11/10 06:59:17;;;;;;;54.75;29.35;;;;;;;7.59;64.17;99347.09;5116853;27;20118;-51
2021/11/10 07:01:43;;;;;;;58.45;27.63;;;;;;;7.52;64.49;99369.63;5135273;27;20023;-52
2021/11/10 07:04:09;;;;;;;66.28;29.02;;;;;;;7.79;64.57;99360.63;5135204;27;20060;-51
2021/11/10 07:06:36;;;;;;;62.72;36.45;;;;;;;7.89;63.68;99340.38;5135052;27;20020;-51
2021/11/10 07:09:04;;;;;;;59.15;32.83;;;;;;;7.94;63.41;99339.84;5135063;27;20024;-51
2021/11/10 07:11:31;;;;;;;62.30;31.23;;;;;;;7.86;63.81;99358.16;5135054;27;20511;-51
2021/11/10 07:13:57;;;;;;;49.20;27.45;;;;;;;7.90;63.25;99375.16;5134862;27;20039;-51
2021/11/10 07:16:22;;;;;;;61.85;30.40;;;;;;;8.17;64.43;99369.53;5116432;27;20023;-51
2021/11/10 07:18:48;;;;;;;45.55;25.55;;;;;;;8.50;62.08;99364.22;5134943;27;20022;-51
2021/11/10 07:21:14;;;;;;;61.92;41.13;;;;;;;8.27;62.23;99378.97;5134880;27;20023;-51
2021/11/10 07:23:41;;;;;;;48.15;27.42;;;;;;;8.35;62.86;99371.94;5134856;27;20104;-51
2021/11/10 07:26:07;;;;;;;46.92;28.88;;;;;;;8.34;61.73;99369.50;5134742;27;20481;-51
2021/11/10 07:28:33;;;;;;;53.55;28.98;;;;;;;8.09;62.67;99368.72;5134744;27;20146;-51
2021/11/10 07:30:59;;;;;;;57.83;27.38;;;;;;;8.14;62.72;99364.63;5116208;27;20508;-51
2021/11/10 07:33:25;;;;;;;78.03;32.25;;;;;;;8.31;62.60;99364.59;5116194;27;20051;-51
2021/11/10 07:35:51;;;;;;;55.22;29.45;;;;;;;8.34;62.05;99348.56;5134635;27;20023;-51
2021/11/10 07:38:19;;;;;;;58.13;29.48;;;;;;;8.40;61.81;99348.69;5134544;27;20030;-51
2021/11/10 07:40:45;;;;;;;49.53;28.95;;;;;;;8.30;61.61;99344.66;5134498;27;20023;-51
2021/11/10 07:43:11;;;;;;;50.40;27.70;;;;;;;8.19;62.03;99361.53;5134494;27;20041;-51
2021/11/10 07:45:38;;;;;;;43.92;26.25;;;;;;;8.02;61.97;99359.94;5134479;27;20023;-51
2021/11/10 07:48:07;;;;;;;48.20;27.00;;;;;;;7.88;62.94;99362.25;5134254;27;20027;-51
2021/11/10 07:50:34;;;;;;;46.92;29.17;;;;;;;7.87;63.07;99365.84;5115775;27;20507;-51
2021/11/10 07:53:01;;;;;;;46.22;27.88;;;;;;;7.90;63.05;99367.31;5134287;27;20174;-51
2021/11/10 07:55:28;;;;;;;70.78;38.78;;;;;;;7.84;63.26;99370.59;5134195;27;20020;-51
2021/11/10 07:57:54;;;;;;;49.40;27.98;;;;;;;7.92;62.59;99388.88;5115697;27;20026;-51
2021/11/10 08:00:22;;;;;;;49.85;27.15;;;;;;;7.89;63.26;99386.59;5115347;27;20080;-51
2021/11/10 08:02:54;;;;;;;52.90;28.58;;;;;;;7.96;62.79;99375.28;5114844;27;20118;-51
2021/11/10 08:05:21;;;;;;;54.53;28.08;;;;;;;7.99;63.22;99377.59;5134025;27;20519;-51
2021/11/10 08:07:47;;;;;;;62.88;30.33;;;;;;;8.15;62.93;99384.59;5133819;27;20064;-51
2021/11/10 08:10:14;;;;;;;47.72;27.13;;;;;;;8.33;61.65;99380.91;5133910;27;20031;-51
2021/11/10 08:12:41;;;;;;;47.92;27.60;;;;;;;8.31;61.58;99385.50;5133710;27;20408;-52
2021/11/10 08:15:12;;;;;;;55.80;27.75;;;;;;;8.40;61.50;99387.13;5133579;27;20089;-51
2021/11/10 08:17:38;;;;;;;54.17;29.52;;;;;;;8.50;61.80;99398.22;5134077;27;20423;-51
2021/11/10 08:20:07;;;;;;;54.58;29.65;;;;;;;8.47;61.50;99400.34;5133665;27;20051;-51
2021/11/10 08:22:45;;;;;;;52.55;27.35;;;;;;;8.36;61.45;99386.63;5109681;27;20129;-49
2021/11/10 08:25:14;;;;;;;56.35;30.98;;;;;;;8.31;62.31;99381.09;5109649;28;20027;-49
2021/11/10 08:27:40;;;;;;;59.47;29.65;;;;;;;8.49;62.56;99387.94;5109631;28;20012;-51
2021/11/10 08:30:13;;;;;;;47.40;26.73;;;;;;;8.70;61.32;99376.91;5109607;28;20024;-50
2021/11/10 08:32:39;;;;;;;49.13;27.85;;;;;;;8.46;61.32;99389.09;5109591;28;20383;-50
2021/11/10 08:35:06;;;;;;;1999.90;999.90;;;;;;;8.21;61.93;99390.94;5109469;28;20024;-50
2021/11/10 08:37:32;;;;;;;288.27;184.93;;;;;;;8.11;62.34;99391.13;5109428;28;20440;-50
2021/11/10 08:39:58;;;;;;;122.43;84.65;;;;;;;8.23;62.80;99383.75;5109380;28;20020;-50
2021/11/10 08:42:32;;;;;;;53.17;30.75;;;;;;;8.50;62.28;99379.09;5107895;28;20024;-50
2021/11/10 08:45:00;;;;;;;99.05;78.68;;;;;;;8.48;61.63;99376.66;5109371;28;20063;-50
2021/11/10 08:47:26;;;;;;;104.72;84.40;;;;;;;8.48;61.87;99381.88;5109238;28;20052;-50
2021/11/10 08:49:52;;;;;;;98.57;56.35;;;;;;;8.64;62.03;99385.44;5109261;28;20084;-50
2021/11/10 08:52:19;;;;;;;74.97;51.78;;;;;;;8.67;60.79;99374.59;5109156;28;20020;-50
2021/11/10 08:54:46;;;;;;;88.30;57.03;;;;;;;8.48;61.10;99389.72;5109099;28;20577;-49
2021/11/10 08:57:12;;;;;;;194.27;136.93;;;;;;;8.46;61.86;99378.63;5109017;28;20024;-50
2021/11/10 08:59:38;;;;;;;67.65;42.67;;;;;;;8.68;61.38;99378.88;5109003;28;20031;-50
2021/11/10 09:02:04;;;;;;;80.65;53.85;;;;;;;8.79;60.92;99386.31;5108930;28;20668;-50
2021/11/10 09:04:30;;;;;;;55.33;33.30;;;;;;;8.83;61.01;99399.88;5107649;28;20073;-50
2021/11/10 09:06:57;;;;;;;57.97;36.72;;;;;;;8.76;60.78;99405.81;5107508;28;20444;-50
2021/11/10 09:09:23;;;;;;;68.80;46.83;;;;;;;8.52;61.31;99400.69;5108838;28;20035;-50
2021/11/10 09:11:50;;;;;;;60.20;36.05;;;;;;;8.43;61.36;99405.13;5108788;28;20401;-50
2021/11/10 09:14:18;;;;;;;52.60;25.00;;;;;;;8.58;60.86;99405.22;5108740;28;20401;-50
2021/11/10 09:16:45;;;;;;;40.45;20.98;;;;;;;8.71;60.96;99409.91;5108540;28;20024;-50
2021/11/10 09:19:11;;;;;;;45.40;20.67;;;;;;;8.75;61.09;99416.44;5108757;28;20106;-50
2021/11/10 09:21:37;;;;;;;39.92;19.65;;;;;;;8.85;60.35;99424.09;5108300;28;20123;-50
2021/11/10 09:24:04;;;;;;;40.42;20.05;;;;;;;8.67;60.26;99419.94;5108548;28;20501;-50
2021/11/10 09:26:30;;;;;;;34.22;19.67;;;;;;;8.56;61.22;99421.09;5108541;28;20093;-50
2021/11/10 09:28:56;;;;;;;47.20;19.60;;;;;;;8.68;60.34;99439.06;5108507;28;20493;-50
2021/11/10 09:31:22;;;;;;;81.70;56.03;;;;;;;8.82;60.04;99437.53;5107041;28;20505;-50
2021/11/10 09:33:49;;;;;;;85.55;55.15;;;;;;;8.91;60.05;99431.25;5096151;28;20012;-50
2021/11/10 09:36:15;;;;;;;68.90;46.97;;;;;;;8.95;59.36;99422.91;5094710;28;20097;-50
2021/11/10 09:38:42;;;;;;;32.85;19.88;;;;;;;8.88;59.38;99424.56;5093370;28;20020;-49
2021/11/10 09:41:08;;;;;;;34.35;19.33;;;;;;;8.85;59.55;99439.78;5094604;28;20457;-50
2021/11/10 09:43:40;;;;;;;39.47;23.45;;;;;;;8.75;59.65;99455.69;5094655;28;20019;-50
2021/11/10 09:46:07;;;;;;;35.60;20.80;;;;;;;8.51;60.32;99443.50;5094526;28;20020;-50
2021/11/10 09:48:34;;;;;;;36.50;21.77;;;;;;;8.45;60.78;99447.63;5094567;28;20524;-50
2021/11/10 09:51:01;;;;;;;70.03;46.60;;;;;;;8.46;61.14;99449.25;5094462;28;20082;-50
2021/11/10 09:53:27;;;;;;;46.40;20.73;;;;;;;8.47;60.52;99444.81;5094436;28;20081;-50
2021/11/10 09:55:55;;;;;;;35.03;19.17;;;;;;;8.35;60.75;99431.25;5094380;28;20031;-50
2021/11/10 09:58:22;;;;;;;46.22;20.70;;;;;;;8.23;61.45;99419.53;5094362;28;20024;-50
2021/11/10 10:01:07;;;;;;;40.08;19.55;;;;;;;8.28;61.44;99420.66;5094215;28;20024;-50
2021/11/10 10:03:35;;;;;;;30.95;18.92;;;;;;;8.39;61.16;99409.84;5094280;28;20028;-49
2021/11/10 10:06:02;;;;;;;29.77;18.80;;;;;;;8.50;61.27;99421.78;5094131;28;20016;-50
2021/11/10 10:08:28;;;;;;;35.65;19.30;;;;;;;8.57;60.72;99414.91;5094128;28;20039;-50
2021/11/10 10:10:54;;;;;;;32.88;19.13;;;;;;;8.47;60.65;99408.22;5092772;28;20498;-50
2021/11/10 10:13:21;;;;;;;33.92;18.30;;;;;;;8.50;60.58;99420.97;5094004;28;20028;-50
2021/11/10 10:15:49;;;;;;;28.27;17.08;;;;;;;8.57;60.65;99420.13;5093964;28;20611;-50
2021/11/10 10:18:25;;;;;;;31.95;18.55;;;;;;;8.75;60.36;99408.59;5093962;28;20177;-49
2021/11/10 10:21:11;;;;;;;31.15;18.80;;;;;;;8.87;59.65;99399.38;5092307;28;20054;-49
2021/11/10 10:23:50;;;;;;;31.70;19.38;;;;;;;8.89;59.74;99405.25;5093867;28;20065;-50
2021/11/10 10:26:28;;;;;;;35.78;19.10;;;;;;;8.97;60.14;99409.63;5093771;28;20070;-50
2021/11/10 10:29:04;;;;;;;33.17;17.98;;;;;;;9.07;59.32;99409.41;5093789;28;20031;-50
2021/11/10 10:31:31;;;;;;;31.95;18.10;;;;;;;9.17;59.12;99417.88;5093700;28;20028;-50
2021/11/10 10:34:06;;;;;;;28.55;17.73;;;;;;;9.13;59.14;99416.56;5093645;28;20020;-50
2021/11/10 10:36:35;;;;;;;28.27;17.92;;;;;;;9.14;59.07;99407.75;5093658;28;20032;-50
2021/11/10 10:39:09;;;;;;;31.70;16.92;;;;;;;9.08;58.86;99404.00;5093567;28;20035;-50
2021/11/10 10:41:38;;;;;;;33.65;17.98;;;;;;;8.97;59.05;99409.63;5093444;28;20031;-50
2021/11/10 10:44:06;;;;;;;34.05;18.27;;;;;;;8.85;59.11;99403.97;5092557;28;20035;-50
2021/11/10 10:46:37;;;;;;;28.27;17.27;;;;;;;8.63;59.74;99391.63;5091984;28;20095;-50
2021/11/10 10:49:18;;;;;;;27.60;17.77;;;;;;;8.48;59.61;99408.03;5093401;28;20020;-50
2021/11/10 10:51:46;;;;;;;29.33;17.13;;;;;;;8.52;59.94;99409.34;5093357;28;20032;-50
2021/11/10 10:54:12;;;;;;;28.30;17.65;;;;;;;8.49;60.64;99414.91;5093338;28;20030;-50
2021/11/10 10:56:42;;;;;;;35.53;18.40;;;;;;;8.51;60.50;99402.50;5093155;28;20064;-50
2021/11/10 10:59:14;;;;;;;26.25;17.05;;;;;;;8.50;60.32;99392.19;5093189;28;20035;-50
2021/11/10 11:01:43;;;;;;;35.45;18.40;;;;;;;8.46;60.12;99383.06;5093044;28;20020;-50
2021/11/10 11:04:13;;;;;;;33.78;16.38;;;;;;;8.66;60.02;99373.81;5093105;28;20016;-50
2021/11/10 11:06:45;;;;;;;29.45;17.20;;;;;;;8.80;59.67;99374.88;5093079;28;20050;-49
2021/11/10 11:09:30;;;;;;;25.20;16.25;;;;;;;8.90;59.23;99385.13;5091687;28;20144;-50
2021/11/10 11:12:12;;;;;;;26.30;17.27;;;;;;;8.94;59.63;99387.22;5091629;28;20024;-50
2021/11/10 11:14:45;;;;;;;28.77;16.60;;;;;;;9.23;59.04;99396.22;5091603;28;20036;-50
2021/11/10 11:17:23;;;;;;;22.58;16.27;;;;;;;9.52;58.30;99399.97;5092897;28;20024;-50
2021/11/10 11:19:56;;;;;;;31.92;18.95;;;;;;;9.67;58.04;99402.63;5092777;28;20039;-50
2021/11/10 11:22:26;;;;;;;25.23;16.77;;;;;;;9.83;57.56;99404.28;5092016;28;20059;-50
2021/11/10 11:24:52;;;;;;;28.42;18.13;;;;;;;9.94;57.22;99403.84;5092784;28;20047;-50
2021/11/10 11:27:31;;;;;;;30.48;18.15;;;;;;;9.75;57.23;99394.69;5091252;28;20017;-52